sensor_id;sensor_type;location;lat;lon;timestamp;P1;durP1;ratioP1;P2;durP2;ratioP2
54157;SDS011;40065;49.894;10.358;2022-07-09T00:03:09;3.28;;;0.70;;
54157;SDS011;40065;49.894;10.358;2022-07-09T00:08:11;3.53;;;0.70;;
54157;SDS011;40065;49.894;10.358;2022-07-09T00:13:13;2.50;;;0.60;;
54157;SDS011;40065;49.894;10.358;2022-07-09T00:18:14;1.27;;;0.55;;
54157;SDS011;40065;49.894;10.358;2022-07-09T00:23:16;1.83;;;0.70;;
54157;SDS011;40065;49.894;10.358;2022-07-09T00:28:18;2.22;;;0.50;;
54157;SDS011;40065;49.894;10.358;2022-07-09T00:33:20;1.10;;;0.60;;
54157;SDS011;40065;49.894;10.358;2022-07-09T00:38:22;1.48;;;0.60;;
54157;SDS011;40065;49.894;10.358;2022-07-09T00:43:24;2.70;;;0.68;;
54157;SDS011;40065;49.894;10.358;2022-07-09T00:48:26;1.38;;;0.50;;
54157;SDS011;40065;49.894;10.358;2022-07-09T00:53:28;1.60;;;0.57;;
54157;SDS011;40065;49.894;10.358;2022-07-09T00:58:29;1.60;;;0.57;;
54157;SDS011;40065;49.894;10.358;2022-07-09T01:03:33;1.15;;;0.60;;
54157;SDS011;40065;49.894;10.358;2022-07-09T01:08:35;1.35;;;0.60;;
54157;SDS011;40065;49.894;10.358;2022-07-09T01:13:37;2.15;;;0.63;;
54157;SDS011;40065;49.894;10.358;2022-07-09T01:18:39;1.50;;;0.47;;
54157;SDS011;40065;49.894;10.358;2022-07-09T01:23:41;1.98;;;0.70;;
54157;SDS011;40065;49.894;10.358;2022-07-09T01:28:43;1.08;;;0.60;;
54157;SDS011;40065;49.894;10.358;2022-07-09T01:33:45;1.45;;;0.60;;
54157;SDS011;40065;49.894;10.358;2022-07-09T01:38:47;4.00;;;0.95;;
54157;SDS011;40065;49.894;10.358;2022-07-09T01:43:48;2.25;;;0.85;;
54157;SDS011;40065;49.894;10.358;2022-07-09T01:48:50;2.53;;;1.08;;
54157;SDS011;40065;49.894;10.358;2022-07-09T01:53:52;2.47;;;0.90;;
54157;SDS011;40065;49.894;10.358;2022-07-09T01:58:54;2.72;;;0.90;;
54157;SDS011;40065;49.894;10.358;2022-07-09T02:03:55;2.80;;;0.90;;
54157;SDS011;40065;49.894;10.358;2022-07-09T02:08:57;1.30;;;0.60;;
54157;SDS011;40065;49.894;10.358;2022-07-09T02:13:59;3.38;;;0.77;;
54157;SDS011;40065;49.894;10.358;2022-07-09T02:19:01;2.75;;;0.93;;
54157;SDS011;40065;49.894;10.358;2022-07-09T02:24:03;2.40;;;0.80;;
54157;SDS011;40065;49.894;10.358;2022-07-09T02:29:05;3.25;;;0.90;;
54157;SDS011;40065;49.894;10.358;2022-07-09T02:34:07;2.15;;;0.90;;
54157;SDS011;40065;49.894;10.358;2022-07-09T02:39:08;2.13;;;0.90;;
54157;SDS011;40065;49.894;10.358;2022-07-09T02:44:10;2.53;;;1.20;;
54157;SDS011;40065;49.894;10.358;2022-07-09T02:49:12;1.63;;;0.77;;
54157;SDS011;40065;49.894;10.358;2022-07-09T02:54:14;1.13;;;0.70;;
54157;SDS011;40065;49.894;10.358;2022-07-09T02:59:16;2.22;;;0.90;;
54157;SDS011;40065;49.894;10.358;2022-07-09T03:04:18;4.50;;;1.00;;
54157;SDS011;40065;49.894;10.358;2022-07-09T03:09:19;2.70;;;1.20;;
54157;SDS011;40065;49.894;10.358;2022-07-09T03:14:22;2.38;;;0.80;;
54157;SDS011;40065;49.894;10.358;2022-07-09T03:19:24;2.28;;;1.02;;
54157;SDS011;40065;49.894;10.358;2022-07-09T03:24:26;2.95;;;1.10;;
54157;SDS011;40065;49.894;10.358;2022-07-09T03:29:29;2.00;;;0.90;;
54157;SDS011;40065;49.894;10.358;2022-07-09T03:34:31;2.42;;;1.00;;
54157;SDS011;40065;49.894;10.358;2022-07-09T03:39:32;2.53;;;0.88;;
54157;SDS011;40065;49.894;10.358;2022-07-09T03:44:34;2.25;;;1.00;;
54157;SDS011;40065;49.894;10.358;2022-07-09T03:49:36;3.30;;;1.30;;
54157;SDS011;40065;49.894;10.358;2022-07-09T03:54:38;2.90;;;1.30;;
54157;SDS011;40065;49.894;10.358;2022-07-09T03:59:40;2.58;;;1.00;;
54157;SDS011;40065;49.894;10.358;2022-07-09T04:04:42;5.03;;;1.48;;
54157;SDS011;40065;49.894;10.358;2022-07-09T04:09:44;3.33;;;1.65;;
54157;SDS011;40065;49.894;10.358;2022-07-09T04:14:47;3.60;;;1.23;;
54157;SDS011;40065;49.894;10.358;2022-07-09T04:19:49;5.63;;;1.80;;
54157;SDS011;40065;49.894;10.358;2022-07-09T04:24:51;2.80;;;1.20;;
54157;SDS011;40065;49.894;10.358;2022-07-09T04:29:52;2.30;;;1.02;;
54157;SDS011;40065;49.894;10.358;2022-07-09T04:34:55;3.00;;;1.58;;
54157;SDS011;40065;49.894;10.358;2022-07-09T04:39:56;3.30;;;1.40;;
54157;SDS011;40065;49.894;10.358;2022-07-09T04:44:58;2.72;;;1.30;;
54157;SDS011;40065;49.894;10.358;2022-07-09T04:50:00;6.22;;;1.65;;
54157;SDS011;40065;49.894;10.358;2022-07-09T04:55:02;4.43;;;1.92;;
54157;SDS011;40065;49.894;10.358;2022-07-09T05:00:05;4.15;;;1.45;;
54157;SDS011;40065;49.894;10.358;2022-07-09T05:05:07;6.63;;;1.80;;
54157;SDS011;40065;49.894;10.358;2022-07-09T05:10:09;7.18;;;1.77;;
54157;SDS011;40065;49.894;10.358;2022-07-09T05:15:12;5.88;;;1.83;;
54157;SDS011;40065;49.894;10.358;2022-07-09T05:20:14;6.70;;;1.70;;
54157;SDS011;40065;49.894;10.358;2022-07-09T05:25:16;4.05;;;1.48;;
54157;SDS011;40065;49.894;10.358;2022-07-09T05:30:18;3.95;;;1.20;;
54157;SDS011;40065;49.894;10.358;2022-07-09T05:35:20;5.00;;;1.55;;
54157;SDS011;40065;49.894;10.358;2022-07-09T05:40:22;3.05;;;1.05;;
54157;SDS011;40065;49.894;10.358;2022-07-09T05:45:24;3.42;;;1.50;;
54157;SDS011;40065;49.894;10.358;2022-07-09T05:50:26;4.88;;;1.40;;
54157;SDS011;40065;49.894;10.358;2022-07-09T05:55:27;4.35;;;1.30;;
54157;SDS011;40065;49.894;10.358;2022-07-09T06:00:29;5.45;;;1.88;;
54157;SDS011;40065;49.894;10.358;2022-07-09T06:05:31;4.80;;;1.50;;
54157;SDS011;40065;49.894;10.358;2022-07-09T06:10:33;3.30;;;1.40;;
54157;SDS011;40065;49.894;10.358;2022-07-09T06:15:35;2.67;;;1.20;;
54157;SDS011;40065;49.894;10.358;2022-07-09T06:20:37;4.97;;;1.40;;
54157;SDS011;40065;49.894;10.358;2022-07-09T06:25:40;4.03;;;1.58;;
54157;SDS011;40065;49.894;10.358;2022-07-09T06:30:42;3.45;;;1.38;;
54157;SDS011;40065;49.894;10.358;2022-07-09T06:35:45;2.42;;;1.10;;
54157;SDS011;40065;49.894;10.358;2022-07-09T06:40:47;5.10;;;1.38;;
54157;SDS011;40065;49.894;10.358;2022-07-09T06:45:49;2.85;;;1.00;;
54157;SDS011;40065;49.894;10.358;2022-07-09T06:50:50;2.80;;;1.00;;
54157;SDS011;40065;49.894;10.358;2022-07-09T06:55:53;2.67;;;1.30;;
54157;SDS011;40065;49.894;10.358;2022-07-09T07:00:55;2.33;;;1.00;;
54157;SDS011;40065;49.894;10.358;2022-07-09T07:05:56;5.35;;;1.33;;
54157;SDS011;40065;49.894;10.358;2022-07-09T07:10:58;3.40;;;0.80;;
54157;SDS011;40065;49.894;10.358;2022-07-09T07:16:01;3.28;;;1.17;;
54157;SDS011;40065;49.894;10.358;2022-07-09T07:21:02;4.97;;;1.25;;
54157;SDS011;40065;49.894;10.358;2022-07-09T07:26:05;7.05;;;1.80;;
54157;SDS011;40065;49.894;10.358;2022-07-09T07:31:07;5.70;;;1.63;;
54157;SDS011;40065;49.894;10.358;2022-07-09T07:36:09;3.28;;;1.10;;
54157;SDS011;40065;49.894;10.358;2022-07-09T07:41:11;4.70;;;1.30;;
54157;SDS011;40065;49.894;10.358;2022-07-09T07:46:13;4.10;;;1.30;;
54157;SDS011;40065;49.894;10.358;2022-07-09T07:51:15;4.28;;;1.23;;
54157;SDS011;40065;49.894;10.358;2022-07-09T08:01:20;6.60;;;1.80;;
54157;SDS011;40065;49.894;10.358;2022-07-09T08:06:22;4.15;;;1.48;;
54157;SDS011;40065;49.894;10.358;2022-07-09T08:11:24;4.80;;;1.40;;
54157;SDS011;40065;49.894;10.358;2022-07-09T08:16:26;6.17;;;1.33;;
54157;SDS011;40065;49.894;10.358;2022-07-09T08:21:28;3.75;;;1.27;;
54157;SDS011;40065;49.894;10.358;2022-07-09T08:26:30;5.88;;;1.67;;
54157;SDS011;40065;49.894;10.358;2022-07-09T08:31:32;3.10;;;1.33;;
54157;SDS011;40065;49.894;10.358;2022-07-09T08:36:34;7.50;;;1.73;;
54157;SDS011;40065;49.894;10.358;2022-07-09T08:41:36;2.67;;;1.25;;
54157;SDS011;40065;49.894;10.358;2022-07-09T08:46:38;1.98;;;0.85;;
54157;SDS011;40065;49.894;10.358;2022-07-09T08:51:43;5.65;;;1.38;;
54157;SDS011;40065;49.894;10.358;2022-07-09T08:56:45;3.83;;;1.27;;
54157;SDS011;40065;49.894;10.358;2022-07-09T09:01:47;2.70;;;0.85;;
54157;SDS011;40065;49.894;10.358;2022-07-09T09:06:49;3.13;;;1.00;;
54157;SDS011;40065;49.894;10.358;2022-07-09T09:11:52;2.40;;;1.10;;
54157;SDS011;40065;49.894;10.358;2022-07-09T09:17:07;3.33;;;1.13;;
54157;SDS011;40065;49.894;10.358;2022-07-09T09:22:16;3.67;;;1.35;;
54157;SDS011;40065;49.894;10.358;2022-07-09T09:27:26;3.35;;;1.45;;
54157;SDS011;40065;49.894;10.358;2022-07-09T09:32:30;3.28;;;0.82;;
54157;SDS011;40065;49.894;10.358;2022-07-09T09:37:31;2.40;;;1.10;;
54157;SDS011;40065;49.894;10.358;2022-07-09T09:42:33;2.63;;;0.90;;
54157;SDS011;40065;49.894;10.358;2022-07-09T09:47:58;2.83;;;1.10;;
54157;SDS011;40065;49.894;10.358;2022-07-09T09:53:01;2.80;;;1.00;;
54157;SDS011;40065;49.894;10.358;2022-07-09T09:58:05;3.38;;;0.90;;
54157;SDS011;40065;49.894;10.358;2022-07-09T10:03:08;2.13;;;1.00;;
54157;SDS011;40065;49.894;10.358;2022-07-09T10:08:12;2.38;;;1.40;;
54157;SDS011;40065;49.894;10.358;2022-07-09T10:13:23;3.38;;;1.42;;
54157;SDS011;40065;49.894;10.358;2022-07-09T10:18:25;3.17;;;1.70;;
54157;SDS011;40065;49.894;10.358;2022-07-09T10:23:27;5.07;;;1.95;;
54157;SDS011;40065;49.894;10.358;2022-07-09T10:28:29;6.38;;;2.00;;
54157;SDS011;40065;49.894;10.358;2022-07-09T10:33:43;2.20;;;1.58;;
54157;SDS011;40065;49.894;10.358;2022-07-09T10:38:54;3.63;;;1.90;;
54157;SDS011;40065;49.894;10.358;2022-07-09T10:43:57;3.20;;;1.90;;
54157;SDS011;40065;49.894;10.358;2022-07-09T10:48:59;3.03;;;2.10;;
54157;SDS011;40065;49.894;10.358;2022-07-09T10:54:02;4.82;;;2.22;;
54157;SDS011;40065;49.894;10.358;2022-07-09T10:59:04;3.75;;;1.80;;
54157;SDS011;40065;49.894;10.358;2022-07-09T11:04:06;2.70;;;1.88;;
54157;SDS011;40065;49.894;10.358;2022-07-09T11:09:13;4.10;;;1.60;;
54157;SDS011;40065;49.894;10.358;2022-07-09T11:14:15;4.20;;;1.60;;
54157;SDS011;40065;49.894;10.358;2022-07-09T11:19:18;3.70;;;1.83;;
54157;SDS011;40065;49.894;10.358;2022-07-09T11:34:26;4.10;;;1.50;;
54157;SDS011;40065;49.894;10.358;2022-07-09T11:39:31;3.97;;;1.73;;
54157;SDS011;40065;49.894;10.358;2022-07-09T11:44:35;2.97;;;1.40;;
54157;SDS011;40065;49.894;10.358;2022-07-09T11:49:38;3.83;;;1.70;;
54157;SDS011;40065;49.894;10.358;2022-07-09T11:54:53;3.65;;;1.50;;
54157;SDS011;40065;49.894;10.358;2022-07-09T11:59:56;3.25;;;1.90;;
54157;SDS011;40065;49.894;10.358;2022-07-09T12:04:58;3.75;;;1.83;;
54157;SDS011;40065;49.894;10.358;2022-07-09T12:10:03;3.30;;;1.60;;
54157;SDS011;40065;49.894;10.358;2022-07-09T12:15:10;3.47;;;1.65;;
54157;SDS011;40065;49.894;10.358;2022-07-09T12:20:11;4.95;;;1.75;;
54157;SDS011;40065;49.894;10.358;2022-07-09T12:25:14;2.60;;;1.80;;
54157;SDS011;40065;49.894;10.358;2022-07-09T12:30:16;4.03;;;1.50;;
54157;SDS011;40065;49.894;10.358;2022-07-09T12:35:19;2.22;;;1.35;;
54157;SDS011;40065;49.894;10.358;2022-07-09T12:40:20;1.80;;;1.30;;
54157;SDS011;40065;49.894;10.358;2022-07-09T12:45:22;2.28;;;1.33;;
54157;SDS011;40065;49.894;10.358;2022-07-09T12:50:24;4.28;;;2.40;;
54157;SDS011;40065;49.894;10.358;2022-07-09T12:55:26;3.63;;;2.08;;
54157;SDS011;40065;49.894;10.358;2022-07-09T13:00:28;2.53;;;1.70;;
54157;SDS011;40065;49.894;10.358;2022-07-09T13:05:30;3.80;;;2.03;;
54157;SDS011;40065;49.894;10.358;2022-07-09T13:10:32;2.80;;;1.70;;
54157;SDS011;40065;49.894;10.358;2022-07-09T13:15:34;2.85;;;1.40;;
54157;SDS011;40065;49.894;10.358;2022-07-09T13:20:36;2.15;;;1.50;;
54157;SDS011;40065;49.894;10.358;2022-07-09T13:25:46;2.35;;;1.52;;
54157;SDS011;40065;49.894;10.358;2022-07-09T13:30:48;2.20;;;1.50;;
54157;SDS011;40065;49.894;10.358;2022-07-09T13:35:50;2.78;;;1.52;;
54157;SDS011;40065;49.894;10.358;2022-07-09T13:40:53;2.88;;;1.70;;
54157;SDS011;40065;49.894;10.358;2022-07-09T13:45:55;3.25;;;1.40;;
54157;SDS011;40065;49.894;10.358;2022-07-09T13:50:59;2.38;;;1.70;;
54157;SDS011;40065;49.894;10.358;2022-07-09T13:56:01;2.35;;;1.48;;
54157;SDS011;40065;49.894;10.358;2022-07-09T14:01:03;2.40;;;1.48;;
54157;SDS011;40065;49.894;10.358;2022-07-09T14:06:05;2.22;;;1.40;;
54157;SDS011;40065;49.894;10.358;2022-07-09T14:11:27;2.75;;;1.90;;
54157;SDS011;40065;49.894;10.358;2022-07-09T14:16:29;2.58;;;1.60;;
54157;SDS011;40065;49.894;10.358;2022-07-09T14:21:33;2.88;;;1.80;;
54157;SDS011;40065;49.894;10.358;2022-07-09T14:26:45;4.55;;;1.90;;
54157;SDS011;40065;49.894;10.358;2022-07-09T14:31:49;8.05;;;1.75;;
54157;SDS011;40065;49.894;10.358;2022-07-09T14:36:51;2.50;;;1.52;;
54157;SDS011;40065;49.894;10.358;2022-07-09T14:46:57;2.25;;;1.38;;
54157;SDS011;40065;49.894;10.358;2022-07-09T14:52:02;2.17;;;1.50;;
54157;SDS011;40065;49.894;10.358;2022-07-09T14:57:04;2.85;;;1.50;;
54157;SDS011;40065;49.894;10.358;2022-07-09T15:02:06;3.80;;;1.50;;
54157;SDS011;40065;49.894;10.358;2022-07-09T15:07:09;2.58;;;1.60;;
54157;SDS011;40065;49.894;10.358;2022-07-09T15:12:11;2.17;;;1.20;;
54157;SDS011;40065;49.894;10.358;2022-07-09T15:17:13;4.10;;;1.52;;
54157;SDS011;40065;49.894;10.358;2022-07-09T15:22:17;2.35;;;1.30;;
54157;SDS011;40065;49.894;10.358;2022-07-09T15:27:19;2.25;;;1.30;;
54157;SDS011;40065;49.894;10.358;2022-07-09T15:32:21;1.83;;;1.30;;
54157;SDS011;40065;49.894;10.358;2022-07-09T15:37:23;3.63;;;1.50;;
54157;SDS011;40065;49.894;10.358;2022-07-09T15:42:24;2.15;;;1.48;;
54157;SDS011;40065;49.894;10.358;2022-07-09T15:47:26;1.60;;;1.17;;
54157;SDS011;40065;49.894;10.358;2022-07-09T15:52:28;2.83;;;1.50;;
54157;SDS011;40065;49.894;10.358;2022-07-09T15:57:30;4.75;;;1.88;;
54157;SDS011;40065;49.894;10.358;2022-07-09T16:02:32;4.85;;;1.80;;
54157;SDS011;40065;49.894;10.358;2022-07-09T16:07:35;2.35;;;1.52;;
54157;SDS011;40065;49.894;10.358;2022-07-09T16:12:37;3.88;;;1.80;;
54157;SDS011;40065;49.894;10.358;2022-07-09T16:17:51;3.28;;;1.50;;
54157;SDS011;40065;49.894;10.358;2022-07-09T16:22:58;3.03;;;1.83;;
54157;SDS011;40065;49.894;10.358;2022-07-09T16:28:00;3.25;;;1.90;;
54157;SDS011;40065;49.894;10.358;2022-07-09T16:33:02;2.10;;;1.60;;
54157;SDS011;40065;49.894;10.358;2022-07-09T16:43:07;2.90;;;1.85;;
54157;SDS011;40065;49.894;10.358;2022-07-09T16:48:09;2.97;;;1.67;;
54157;SDS011;40065;49.894;10.358;2022-07-09T16:53:10;2.45;;;1.60;;
54157;SDS011;40065;49.894;10.358;2022-07-09T16:58:12;3.63;;;1.92;;
54157;SDS011;40065;49.894;10.358;2022-07-09T17:03:14;2.10;;;1.65;;
54157;SDS011;40065;49.894;10.358;2022-07-09T17:08:17;2.37;;;1.73;;
54157;SDS011;40065;49.894;10.358;2022-07-09T17:13:19;1.88;;;1.50;;
54157;SDS011;40065;49.894;10.358;2022-07-09T17:18:21;3.15;;;1.70;;
54157;SDS011;40065;49.894;10.358;2022-07-09T17:23:23;1.88;;;1.50;;
54157;SDS011;40065;49.894;10.358;2022-07-09T17:28:25;2.30;;;1.25;;
54157;SDS011;40065;49.894;10.358;2022-07-09T17:33:27;3.10;;;1.63;;
54157;SDS011;40065;49.894;10.358;2022-07-09T17:38:29;2.50;;;1.48;;
54157;SDS011;40065;49.894;10.358;2022-07-09T17:43:31;2.05;;;1.30;;
54157;SDS011;40065;49.894;10.358;2022-07-09T17:48:32;4.85;;;1.60;;
54157;SDS011;40065;49.894;10.358;2022-07-09T17:53:35;2.87;;;1.87;;
54157;SDS011;40065;49.894;10.358;2022-07-09T17:58:37;2.70;;;1.20;;
54157;SDS011;40065;49.894;10.358;2022-07-09T18:03:40;2.95;;;1.10;;
54157;SDS011;40065;49.894;10.358;2022-07-09T18:08:42;1.90;;;1.17;;
54157;SDS011;40065;49.894;10.358;2022-07-09T18:13:43;3.55;;;1.30;;
54157;SDS011;40065;49.894;10.358;2022-07-09T18:18:45;5.40;;;1.17;;
54157;SDS011;40065;49.894;10.358;2022-07-09T18:23:47;1.75;;;1.08;;
54157;SDS011;40065;49.894;10.358;2022-07-09T18:28:49;1.85;;;1.30;;
54157;SDS011;40065;49.894;10.358;2022-07-09T18:33:52;2.58;;;1.33;;
54157;SDS011;40065;49.894;10.358;2022-07-09T18:38:53;2.75;;;1.20;;
54157;SDS011;40065;49.894;10.358;2022-07-09T18:43:55;2.10;;;1.20;;
54157;SDS011;40065;49.894;10.358;2022-07-09T18:48:57;2.60;;;0.98;;
54157;SDS011;40065;49.894;10.358;2022-07-09T18:53:59;1.52;;;0.82;;
54157;SDS011;40065;49.894;10.358;2022-07-09T18:59:01;1.30;;;0.75;;
54157;SDS011;40065;49.894;10.358;2022-07-09T19:04:03;1.48;;;0.80;;
54157;SDS011;40065;49.894;10.358;2022-07-09T19:09:05;4.40;;;1.10;;
54157;SDS011;40065;49.894;10.358;2022-07-09T19:14:06;2.22;;;1.10;;
54157;SDS011;40065;49.894;10.358;2022-07-09T19:19:08;2.63;;;1.30;;
54157;SDS011;40065;49.894;10.358;2022-07-09T19:24:10;4.80;;;1.30;;
54157;SDS011;40065;49.894;10.358;2022-07-09T19:29:12;1.80;;;1.00;;
54157;SDS011;40065;49.894;10.358;2022-07-09T19:34:14;1.80;;;1.10;;
54157;SDS011;40065;49.894;10.358;2022-07-09T19:39:16;2.10;;;1.10;;
54157;SDS011;40065;49.894;10.358;2022-07-09T19:44:18;4.80;;;1.40;;
54157;SDS011;40065;49.894;10.358;2022-07-09T19:49:22;2.05;;;1.50;;
54157;SDS011;40065;49.894;10.358;2022-07-09T19:54:23;2.42;;;1.50;;
54157;SDS011;40065;49.894;10.358;2022-07-09T19:59:26;2.70;;;1.50;;
54157;SDS011;40065;49.894;10.358;2022-07-09T20:04:28;2.35;;;1.40;;
54157;SDS011;40065;49.894;10.358;2022-07-09T20:09:30;2.72;;;1.70;;
54157;SDS011;40065;49.894;10.358;2022-07-09T20:14:31;3.38;;;1.90;;
54157;SDS011;40065;49.894;10.358;2022-07-09T20:19:34;4.63;;;1.50;;
54157;SDS011;40065;49.894;10.358;2022-07-09T20:24:36;2.30;;;1.60;;
54157;SDS011;40065;49.894;10.358;2022-07-09T20:29:38;2.67;;;1.40;;
54157;SDS011;40065;49.894;10.358;2022-07-09T20:34:40;2.90;;;1.80;;
54157;SDS011;40065;49.894;10.358;2022-07-09T20:39:42;1.70;;;1.25;;
54157;SDS011;40065;49.894;10.358;2022-07-09T20:44:44;2.42;;;1.30;;
54157;SDS011;40065;49.894;10.358;2022-07-09T20:49:46;2.50;;;1.50;;
54157;SDS011;40065;49.894;10.358;2022-07-09T20:54:48;2.17;;;1.40;;
54157;SDS011;40065;49.894;10.358;2022-07-09T20:59:51;2.50;;;1.77;;
54157;SDS011;40065;49.894;10.358;2022-07-09T21:04:53;4.55;;;1.60;;
54157;SDS011;40065;49.894;10.358;2022-07-09T21:09:55;2.28;;;1.60;;
54157;SDS011;40065;49.894;10.358;2022-07-09T21:14:57;2.30;;;1.60;;
54157;SDS011;40065;49.894;10.358;2022-07-09T21:19:58;2.03;;;1.38;;
54157;SDS011;40065;49.894;10.358;2022-07-09T21:25:01;2.50;;;1.92;;
54157;SDS011;40065;49.894;10.358;2022-07-09T21:30:03;2.33;;;1.50;;
54157;SDS011;40065;49.894;10.358;2022-07-09T21:35:05;3.90;;;1.95;;
54157;SDS011;40065;49.894;10.358;2022-07-09T21:40:07;2.10;;;1.40;;
54157;SDS011;40065;49.894;10.358;2022-07-09T21:45:10;2.15;;;1.83;;
54157;SDS011;40065;49.894;10.358;2022-07-09T21:50:12;2.38;;;1.38;;
54157;SDS011;40065;49.894;10.358;2022-07-09T21:55:13;1.90;;;1.33;;
54157;SDS011;40065;49.894;10.358;2022-07-09T22:00:19;3.72;;;1.83;;
54157;SDS011;40065;49.894;10.358;2022-07-09T22:05:25;2.03;;;1.40;;
54157;SDS011;40065;49.894;10.358;2022-07-09T22:10:27;2.85;;;2.13;;
54157;SDS011;40065;49.894;10.358;2022-07-09T22:15:29;2.83;;;2.10;;
54157;SDS011;40065;49.894;10.358;2022-07-09T22:20:31;3.13;;;2.10;;
54157;SDS011;40065;49.894;10.358;2022-07-09T22:25:33;2.95;;;1.88;;
54157;SDS011;40065;49.894;10.358;2022-07-09T22:30:35;2.60;;;1.70;;
54157;SDS011;40065;49.894;10.358;2022-07-09T22:35:38;3.88;;;2.83;;
54157;SDS011;40065;49.894;10.358;2022-07-09T22:40:39;3.28;;;2.40;;
54157;SDS011;40065;49.894;10.358;2022-07-09T22:45:41;3.20;;;2.40;;
54157;SDS011;40065;49.894;10.358;2022-07-09T22:50:43;5.15;;;2.83;;
54157;SDS011;40065;49.894;10.358;2022-07-09T22:55:45;2.85;;;2.10;;
54157;SDS011;40065;49.894;10.358;2022-07-09T23:00:47;4.38;;;2.30;;
54157;SDS011;40065;49.894;10.358;2022-07-09T23:05:49;3.85;;;2.65;;
54157;SDS011;40065;49.894;10.358;2022-07-09T23:10:50;4.05;;;2.72;;
54157;SDS011;40065;49.894;10.358;2022-07-09T23:15:52;2.47;;;2.08;;
54157;SDS011;40065;49.894;10.358;2022-07-09T23:20:54;2.67;;;2.17;;
54157;SDS011;40065;49.894;10.358;2022-07-09T23:25:56;3.05;;;2.50;;
54157;SDS011;40065;49.894;10.358;2022-07-09T23:30:58;3.20;;;2.58;;
54157;SDS011;40065;49.894;10.358;2022-07-09T23:36:00;2.85;;;2.30;;
54157;SDS011;40065;49.894;10.358;2022-07-09T23:41:02;3.72;;;2.80;;
54157;SDS011;40065;49.894;10.358;2022-07-09T23:46:04;3.35;;;2.60;;
54157;SDS011;40065;49.894;10.358;2022-07-09T23:51:06;3.58;;;2.80;;
54157;SDS011;40065;49.894;10.358;2022-07-09T23:56:08;3.40;;;2.78;;
